• Join FlightAware (Why Join?)
  • Login
  • US Flag 
10:16AM EDT


 

Airport Tracker/Info


-or-


 

Live Flight TrackerFlight Track Log ✈ CNS331 ✈ 29-Jul-2013 ✈ KBHM - KPDK

Flight Track Log - Related Links

Times and Time Zones

All times are in EDT time to prevent confusion due to time zone crossing. See the CNS331 flight status page for this flight to view local times or setup timezone preferences in your user account.

Time Position Orientation Groundspeed Altitude Reporting Facility
EDT Latitude Longitude Course Direction KTS MPH feet Rate Location/Type
06:51PM 33.5872 -86.7369 83° East 123 142 2,300  Level Atlanta Center
06:52PM 33.5925 -86.6847 83° East 171 197 4,000 1,500 Climbing Atlanta Center
06:53PM 33.5958 -86.6350 85° East 179 206 5,200 1,440 Climbing Atlanta Center
06:54PM 33.6072 -86.5803 76° East 171 197 6,500 1,440 Climbing Atlanta Center
06:55PM 33.6128 -86.5208 84° East 198 228 8,000 1,380 Climbing Atlanta Center
06:56PM 33.6222 -86.4611 79° East 207 238 9,300 1,500 Climbing Atlanta Center
06:57PM 33.6297 -86.3964 82° East 207 238 10,800 1,320 Climbing Atlanta Center
06:58PM 33.6372 -86.3317 82° East 195 224 12,000 1,200 Climbing Atlanta Center
06:59PM 33.6489 -86.2622 79° East 201 231 13,300 720 Climbing Atlanta Center
07:00PM 33.6567 -86.1850 83° East 214 246 13,500 60 Climbing Atlanta Center
07:01PM 33.6706 -86.0956 79° East 245 282 13,500  Level Atlanta Center
07:02PM 33.6783 -86.0083 84° East 256 295 13,500  Level Atlanta Center
07:03PM 33.6944 -85.9189 78° East 262 302 13,500  Level Atlanta Center
07:04PM 33.7039 -85.8317 83° East 262 302 13,500  Level Atlanta Center
07:05PM 33.7136 -85.7469 82° East 257 296 13,500  Level Atlanta Center
07:06PM 33.7231 -85.6597 83° East 257 296 13,500  Level Atlanta Center
07:07PM 33.7347 -85.5725 81° East 263 303 13,500 -300 Level Atlanta Center
07:08PM 33.7442 -85.4828 83° East 263 303 13,000 -600 Descending Atlanta Center
07:09PM 33.7556 -85.3906 82° East 269 310 12,300 -1,140 Descending Atlanta Center
07:10PM 33.7669 -85.2983 82° East 275 316 10,800 -1,440 Descending Atlanta Center
07:11PM 33.7761 -85.2108 83° East 275 316 9,500 -1,020 Descending Atlanta Center
07:12PM 33.7853 -85.1361 82° East 241 277 8,800 -720 Descending Atlanta Center
07:13PM 33.7919 -85.0686 83° East 222 255 8,100 -840 Descending Atlanta Center
07:14PM 33.8011 -84.9939 82° East 222 255 7,200 -840 Descending Atlanta Center
07:15PM 33.8078 -84.9214 84° East 217 250 6,500 -720 Descending Atlanta Center
07:16PM 33.8167 -84.8514 81° East 217 250 5,800 -840 Descending Atlanta Center
07:17PM 33.8167 -84.7833 90° East 213 245 5,100 -900 Descending Atlanta TRACON
07:18PM 33.8333 -84.7167 73° East 211 243 4,300 -660 Descending Atlanta TRACON
07:19PM 33.8333 -84.6500 90° East 206 237 3,800 -300 Descending Atlanta TRACON
07:20PM 33.8500 -84.5833 73° East 197 227 3,800  Level Atlanta TRACON
07:21PM 33.8500 -84.5167 90° East 196 226 3,800  Level Atlanta TRACON
07:22PM 33.8667 -84.4500 73° East 195 224 3,800 -420 Level Atlanta TRACON
07:23PM 33.8667 -84.3833 90° East 201 231 3,000 -1,020 Descending Atlanta TRACON
07:24PM 33.8500 -84.3333 112° Southeast 168 193 1,900 -1,200 Descending Atlanta TRACON
07:26PM 33.8667 -84.3000 90° East  Level FlightAware Approximate
07:33PM 33.8756 -84.3020 90° East  Level Estimated
07:34PM 33.8756 -84.3020 90° East  Level Estimated